Time;durP1;ratioP1;P1;durP2;ratioP2;P2;SDS_P1;SDS_P2;PMS_P1;PMS_P2;Temp;Humidity;BMP_temperature;BMP_pressure;BME280_temperature;BME280_humidity;BME280_pressure;Samples;Min_cycle;Max_cycle;Signal;HPM_P1;HPM_P2
2022/03/13 00:00:24;;;;;;;135.32;66.72;;;;;;;;;;5093673;28;20024;-44
2022/03/13 00:02:52;;;;;;;133.23;65.68;;;;;;;;;;5093648;28;20103;-45
2022/03/13 00:05:19;;;;;;;129.05;63.38;;;;;;;;;;5093601;28;20112;-45
2022/03/13 00:07:47;;;;;;;119.28;57.28;;;;;;;;;;5093647;28;20028;-45
2022/03/13 00:10:18;;;;;;;165.60;81.53;;;;;;;;;;5093540;28;20077;-45
2022/03/13 00:12:46;;;;;;;169.48;79.03;;;;;;;;;;5091649;28;20099;-44
2022/03/13 00:15:17;;;;;;;126.32;58.28;;;;;;;;;;5093619;28;20031;-44
2022/03/13 00:17:44;;;;;;;131.10;62.87;;;;;;;;;;5091257;28;20500;-44
2022/03/13 00:20:11;;;;;;;128.38;60.15;;;;;;;;;;5093454;28;20249;-43
2022/03/13 00:22:37;;;;;;;83.72;42.42;;;;;;;;;;5093228;28;20020;-45
2022/03/13 00:25:05;;;;;;;86.15;41.50;;;;;;;;;;5093570;28;20084;-44
2022/03/13 00:27:31;;;;;;;80.03;39.63;;;;;;;;;;5093367;28;20016;-45
2022/03/13 00:29:58;;;;;;;89.47;44.47;;;;;;;;;;5093080;28;20032;-44
2022/03/13 00:32:24;;;;;;;84.38;42.45;;;;;;;;;;5093308;28;20501;-44
2022/03/13 00:34:50;;;;;;;112.75;56.72;;;;;;;;;;5093136;28;20023;-44
2022/03/13 00:37:17;;;;;;;99.65;47.67;;;;;;;;;;5092986;28;20016;-44
2022/03/13 00:39:46;;;;;;;83.32;41.65;;;;;;;;;;5093256;28;20020;-45
2022/03/13 00:42:17;;;;;;;90.05;44.83;;;;;;;;;;5093358;28;20021;-45
2022/03/13 00:44:43;;;;;;;84.32;42.65;;;;;;;;;;5093515;28;20499;-44
2022/03/13 00:47:09;;;;;;;86.68;41.88;;;;;;;;;;5093154;28;20461;-45
2022/03/13 00:49:35;;;;;;;100.85;47.38;;;;;;;;;;5092987;28;20361;-45
2022/03/13 00:52:02;;;;;;;93.15;44.72;;;;;;;;;;5093064;28;20016;-44
2022/03/13 00:54:28;;;;;;;100.90;47.83;;;;;;;;;;5092932;28;20012;-44
2022/03/13 00:56:54;;;;;;;102.60;47.47;;;;;;;;;;5092842;28;20020;-44
2022/03/13 00:59:21;;;;;;;98.85;45.03;;;;;;;;;;5093085;28;20388;-45
2022/03/13 01:01:50;;;;;;;97.00;42.70;;;;;;;;;;5092815;28;20024;-46
2022/03/13 01:04:16;;;;;;;98.03;44.33;;;;;;;;;;5092839;28;20121;-44
2022/03/13 01:06:43;;;;;;;131.40;50.85;;;;;;;;;;5092788;28;20402;-45
2022/03/13 01:09:10;;;;;;;126.95;55.47;;;;;;;;;;5094229;28;20472;-45
2022/03/13 01:11:36;;;;;;;125.53;57.40;;;;;;;;;;5097163;28;20385;-45
2022/03/13 01:14:02;;;;;;;109.45;53.28;;;;;;;;;;5096966;28;20027;-45
2022/03/13 01:16:33;;;;;;;86.93;43.17;;;;;;;;;;5096695;28;20016;-46
2022/03/13 01:19:00;;;;;;;91.35;45.08;;;;;;;;;;5094363;28;20036;-44
2022/03/13 01:21:27;;;;;;;89.93;43.88;;;;;;;;;;5096681;28;20043;-46
2022/03/13 01:24:02;;;;;;;90.72;45.95;;;;;;;;;;5096666;28;20028;-44
2022/03/13 01:26:29;;;;;;;95.53;46.67;;;;;;;;;;5096681;28;20073;-45
2022/03/13 01:28:57;;;;;;;98.20;48.42;;;;;;;;;;5096449;28;20063;-46
2022/03/13 01:31:25;;;;;;;75.97;39.90;;;;;;;;;;5096515;28;20068;-47
2022/03/13 01:33:51;;;;;;;90.65;43.63;;;;;;;;;;5096571;28;20020;-45
2022/03/13 01:36:19;;;;;;;94.55;46.63;;;;;;;;;;5096308;28;20016;-46
2022/03/13 01:38:45;;;;;;;96.72;47.17;;;;;;;;;;5096313;28;20045;-46
2022/03/13 01:41:11;;;;;;;100.55;47.95;;;;;;;;;;5096311;28;20102;-45
2022/03/13 01:43:38;;;;;;;92.45;46.97;;;;;;;;;;5080996;28;20042;-44
2022/03/13 01:46:05;;;;;;;85.22;42.72;;;;;;;;;;5069328;28;20024;-43
2022/03/13 01:48:40;;;;;;;88.70;43.53;;;;;;;;;;5068474;28;20059;-44
2022/03/13 01:51:06;;;;;;;82.43;41.63;;;;;;;;;;5069664;28;20032;-43
2022/03/13 01:53:35;;;;;;;89.20;43.10;;;;;;;;;;5068775;28;20479;-45
2022/03/13 01:56:01;;;;;;;84.50;40.35;;;;;;;;;;5069183;28;20811;-45
2022/03/13 01:58:29;;;;;;;90.40;45.85;;;;;;;;;;5069123;28;20024;-45
2022/03/13 02:00:56;;;;;;;150.30;69.75;;;;;;;;;;5068870;28;20545;-43
2022/03/13 02:03:23;;;;;;;153.70;68.90;;;;;;;;;;5069419;28;20034;-44
2022/03/13 02:05:49;;;;;;;126.43;58.00;;;;;;;;;;5068573;28;20055;-45
2022/03/13 02:08:22;;;;;;;122.57;58.05;;;;;;;;;;5069334;28;20369;-44
2022/03/13 02:10:48;;;;;;;120.05;55.22;;;;;;;;;;5068641;28;20069;-44
2022/03/13 02:13:16;;;;;;;116.25;55.20;;;;;;;;;;5068425;28;20038;-44
2022/03/13 02:15:42;;;;;;;134.05;64.32;;;;;;;;;;5068702;28;20056;-45
2022/03/13 02:18:08;;;;;;;132.15;65.57;;;;;;;;;;5068071;28;20071;-46
2022/03/13 02:20:42;;;;;;;153.25;70.03;;;;;;;;;;5068150;28;20024;-44
2022/03/13 02:23:24;;;;;;;157.70;71.95;;;;;;;;;;5068404;28;21056;-45
2022/03/13 02:25:52;;;;;;;169.60;74.50;;;;;;;;;;5069075;28;20115;-45
2022/03/13 02:28:21;;;;;;;162.38;74.80;;;;;;;;;;5068536;28;20032;-46
2022/03/13 02:30:48;;;;;;;196.15;85.95;;;;;;;;;;5068047;28;20054;-45
2022/03/13 02:33:19;;;;;;;176.15;82.30;;;;;;;;;;5068338;28;20039;-44
2022/03/13 02:36:01;;;;;;;164.57;77.10;;;;;;;;;;5068425;28;20024;-45
2022/03/13 02:38:28;;;;;;;138.52;64.68;;;;;;;;;;5068538;28;20050;-45
2022/03/13 02:40:55;;;;;;;133.57;60.90;;;;;;;;;;5068119;28;20123;-45
2022/03/13 02:43:21;;;;;;;117.70;57.47;;;;;;;;;;5068197;28;20027;-46
2022/03/13 02:45:48;;;;;;;141.20;66.88;;;;;;;;;;5068453;28;20020;-45
2022/03/13 02:48:17;;;;;;;132.30;60.85;;;;;;;;;;5067786;28;20067;-45
2022/03/13 02:50:43;;;;;;;145.70;68.07;;;;;;;;;;5066810;28;20032;-45
2022/03/13 02:53:10;;;;;;;144.63;68.05;;;;;;;;;;5067975;28;20023;-44
2022/03/13 02:55:36;;;;;;;148.48;70.45;;;;;;;;;;5067907;28;20054;-44
2022/03/13 02:58:02;;;;;;;146.38;69.53;;;;;;;;;;5067732;28;21464;-45
2022/03/13 03:00:43;;;;;;;148.20;69.32;;;;;;;;;;5067749;28;20024;-45
2022/03/13 03:03:09;;;;;;;157.52;72.30;;;;;;;;;;5067738;28;20021;-44
2022/03/13 03:05:38;;;;;;;163.63;74.30;;;;;;;;;;5067446;28;20036;-44
2022/03/13 03:08:04;;;;;;;150.52;71.32;;;;;;;;;;5067576;28;20519;-45
2022/03/13 03:10:30;;;;;;;177.77;82.20;;;;;;;;;;5067349;28;20797;-44
2022/03/13 03:12:56;;;;;;;194.60;91.93;;;;;;;;;;5068072;28;20031;-44
2022/03/13 03:15:23;;;;;;;199.65;90.68;;;;;;;;;;5067447;28;20024;-43
2022/03/13 03:17:50;;;;;;;204.80;93.47;;;;;;;;;;5067398;28;20035;-44
2022/03/13 03:20:16;;;;;;;205.80;93.22;;;;;;;;;;5067244;28;20036;-44
2022/03/13 03:22:42;;;;;;;195.13;95.43;;;;;;;;;;5067560;28;20308;-45
2022/03/13 03:25:08;;;;;;;183.70;87.53;;;;;;;;;;5067962;28;20458;-45
2022/03/13 03:27:37;;;;;;;173.88;81.40;;;;;;;;;;5067043;28;20024;-44
2022/03/13 03:30:07;;;;;;;170.68;79.32;;;;;;;;;;5067094;28;20161;-44
2022/03/13 03:32:36;;;;;;;176.85;83.05;;;;;;;;;;5065025;28;20420;-45
2022/03/13 03:35:02;;;;;;;168.40;75.85;;;;;;;;;;5067090;28;20072;-44
2022/03/13 03:37:32;;;;;;;175.20;77.53;;;;;;;;;;5067222;28;20031;-44
2022/03/13 03:39:58;;;;;;;189.30;79.07;;;;;;;;;;5067476;28;20499;-44
2022/03/13 03:42:24;;;;;;;177.43;77.78;;;;;;;;;;5067467;28;20120;-44
2022/03/13 03:44:50;;;;;;;200.15;81.88;;;;;;;;;;5066424;28;20043;-45
2022/03/13 03:47:16;;;;;;;204.75;83.03;;;;;;;;;;5067270;28;21054;-44
2022/03/13 03:49:42;;;;;;;195.07;79.57;;;;;;;;;;5084988;28;20072;-46
2022/03/13 03:52:08;;;;;;;156.40;67.88;;;;;;;;;;5094353;28;20426;-46
2022/03/13 03:54:35;;;;;;;133.48;60.28;;;;;;;;;;5094418;28;20537;-45
2022/03/13 03:57:01;;;;;;;232.75;91.10;;;;;;;;;;5093934;28;20020;-45
2022/03/13 03:59:27;;;;;;;230.50;92.88;;;;;;;;;;5094407;28;20388;-45
2022/03/13 04:01:53;;;;;;;192.63;77.60;;;;;;;;;;5094196;28;20099;-45
2022/03/13 04:04:19;;;;;;;210.18;85.57;;;;;;;;;;5094052;28;20067;-45
2022/03/13 04:06:46;;;;;;;233.63;90.55;;;;;;;;;;5093909;28;20026;-45
2022/03/13 04:09:12;;;;;;;224.07;84.97;;;;;;;;;;5093968;28;20388;-45
2022/03/13 04:11:40;;;;;;;152.98;74.25;;;;;;;;;;5093844;28;20031;-46
2022/03/13 04:14:08;;;;;;;178.32;76.28;;;;;;;;;;5094023;28;20016;-45
2022/03/13 04:16:35;;;;;;;161.35;71.70;;;;;;;;;;5093740;28;20153;-44
2022/03/13 04:19:01;;;;;;;165.55;73.47;;;;;;;;;;5092522;28;20024;-45
2022/03/13 04:21:27;;;;;;;146.68;71.00;;;;;;;;;;5093724;28;20545;-45
2022/03/13 04:23:53;;;;;;;161.25;71.60;;;;;;;;;;5093847;28;20020;-46
2022/03/13 04:26:21;;;;;;;182.00;77.13;;;;;;;;;;5093864;28;20128;-46
2022/03/13 04:28:53;;;;;;;188.45;75.65;;;;;;;;;;5093576;28;20025;-45
2022/03/13 04:31:20;;;;;;;157.82;70.13;;;;;;;;;;5093637;28;20059;-44
2022/03/13 04:33:49;;;;;;;150.88;71.55;;;;;;;;;;5093715;28;20051;-45
2022/03/13 04:36:17;;;;;;;150.70;68.47;;;;;;;;;;5093633;28;20020;-45
2022/03/13 04:38:43;;;;;;;162.98;72.43;;;;;;;;;;5093459;28;20148;-47
2022/03/13 04:41:10;;;;;;;164.73;71.70;;;;;;;;;;5093440;28;20034;-46
2022/03/13 04:43:37;;;;;;;153.50;66.88;;;;;;;;;;5093434;28;20596;-46
2022/03/13 04:46:03;;;;;;;168.02;73.43;;;;;;;;;;5093425;28;20384;-46
2022/03/13 04:48:32;;;;;;;153.43;69.70;;;;;;;;;;5093158;28;20109;-46
2022/03/13 04:51:07;;;;;;;128.07;58.35;;;;;;;;;;5093460;28;20058;-46
2022/03/13 04:53:34;;;;;;;126.22;60.55;;;;;;;;;;5093479;28;20031;-46
2022/03/13 04:56:00;;;;;;;138.05;64.53;;;;;;;;;;5091938;28;20043;-46
2022/03/13 04:58:26;;;;;;;136.90;64.35;;;;;;;;;;5093562;28;20467;-46
2022/03/13 05:00:52;;;;;;;137.77;63.20;;;;;;;;;;5093443;28;20047;-44
2022/03/13 05:03:18;;;;;;;142.70;58.95;;;;;;;;;;5092005;28;20115;-45
2022/03/13 05:05:45;;;;;;;144.40;62.42;;;;;;;;;;5092125;28;20028;-44
2022/03/13 05:08:15;;;;;;;141.30;60.97;;;;;;;;;;5093230;28;20028;-46
2022/03/13 05:10:42;;;;;;;169.02;69.38;;;;;;;;;;5093108;28;20059;-46
2022/03/13 05:13:11;;;;;;;139.35;62.65;;;;;;;;;;5093337;28;20020;-46
2022/03/13 05:15:37;;;;;;;202.00;81.07;;;;;;;;;;5091762;28;20039;-46
2022/03/13 05:18:04;;;;;;;209.70;84.30;;;;;;;;;;5092784;28;20078;-45
2022/03/13 05:20:31;;;;;;;186.10;73.90;;;;;;;;;;5093134;28;20320;-46
2022/03/13 05:22:57;;;;;;;126.05;59.03;;;;;;;;;;5093032;28;20025;-45
2022/03/13 05:25:24;;;;;;;129.80;60.97;;;;;;;;;;5091732;28;20115;-45
2022/03/13 05:27:50;;;;;;;131.68;61.33;;;;;;;;;;5093091;28;20020;-45
2022/03/13 05:30:17;;;;;;;161.90;70.57;;;;;;;;;;5092745;28;20050;-45
2022/03/13 05:32:43;;;;;;;127.07;61.17;;;;;;;;;;5092921;28;20017;-46
2022/03/13 05:35:10;;;;;;;123.63;58.55;;;;;;;;;;5092937;28;20514;-45
2022/03/13 05:37:36;;;;;;;136.38;63.75;;;;;;;;;;5092884;28;20027;-46
2022/03/13 05:40:03;;;;;;;140.85;63.97;;;;;;;;;;5091386;28;20051;-45
2022/03/13 05:42:30;;;;;;;160.80;72.90;;;;;;;;;;5093094;28;20107;-44
2022/03/13 05:44:58;;;;;;;193.55;97.30;;;;;;;;;;5092944;28;20035;-45
2022/03/13 05:47:24;;;;;;;160.68;76.20;;;;;;;;;;5092427;28;20511;-46
2022/03/13 05:49:50;;;;;;;172.65;76.10;;;;;;;;;;5092624;28;20063;-46
2022/03/13 05:52:20;;;;;;;141.00;66.35;;;;;;;;;;5092704;28;20472;-47
2022/03/13 05:54:47;;;;;;;153.70;70.85;;;;;;;;;;5091962;28;20036;-46
2022/03/13 05:57:13;;;;;;;182.15;80.22;;;;;;;;;;5096393;28;20028;-46
2022/03/13 05:59:39;;;;;;;267.88;104.25;;;;;;;;;;5096367;28;20050;-48
2022/03/13 06:02:06;;;;;;;201.32;89.10;;;;;;;;;;5096101;28;20036;-46
2022/03/13 06:04:35;;;;;;;204.88;91.50;;;;;;;;;;5096406;28;20028;-47
2022/03/13 06:07:02;;;;;;;200.30;90.47;;;;;;;;;;5096198;28;20086;-47
2022/03/13 06:09:28;;;;;;;177.07;83.45;;;;;;;;;;5096302;28;20062;-47
2022/03/13 06:11:54;;;;;;;227.65;107.25;;;;;;;;;;5096281;28;20069;-46
2022/03/13 06:14:20;;;;;;;253.75;113.28;;;;;;;;;;5096102;28;20056;-46
2022/03/13 06:16:46;;;;;;;246.95;111.82;;;;;;;;;;5095984;28;20024;-46
2022/03/13 06:19:12;;;;;;;233.77;110.90;;;;;;;;;;5095924;28;20499;-45
2022/03/13 06:21:42;;;;;;;205.77;106.05;;;;;;;;;;5096001;28;20035;-46
2022/03/13 06:24:08;;;;;;;200.43;100.15;;;;;;;;;;5095877;28;20024;-43
2022/03/13 06:26:36;;;;;;;190.15;95.32;;;;;;;;;;5096222;28;20117;-44
2022/03/13 06:29:02;;;;;;;166.20;88.97;;;;;;;;;;5095999;28;20035;-44
2022/03/13 06:31:28;;;;;;;163.00;88.28;;;;;;;;;;5095850;28;20070;-44
2022/03/13 06:33:54;;;;;;;172.80;90.10;;;;;;;;;;5095573;28;20024;-46
2022/03/13 06:36:20;;;;;;;185.43;95.82;;;;;;;;;;5095666;28;20028;-47
2022/03/13 06:38:47;;;;;;;175.00;96.28;;;;;;;;;;5095571;28;20020;-46
2022/03/13 06:41:18;;;;;;;178.82;98.80;;;;;;;;;;5095948;28;20429;-44
2022/03/13 06:43:44;;;;;;;;;;;;;;;;;;5096031;28;20055;-45
2022/03/13 06:46:10;;;;;;;156.38;86.65;;;;;;;;;;5095820;28;19904;-45
2022/03/13 06:48:37;;;;;;;169.85;92.05;;;;;;;;;;5095190;28;20055;-46
2022/03/13 06:51:03;;;;;;;149.80;80.53;;;;;;;;;;5095388;28;20032;-46
2022/03/13 06:53:29;;;;;;;147.88;77.07;;;;;;;;;;5095349;28;20353;-45
2022/03/13 06:55:55;;;;;;;127.00;70.18;;;;;;;;;;5095489;28;20028;-47
2022/03/13 06:58:22;;;;;;;124.35;67.78;;;;;;;;;;5095478;28;20055;-46
2022/03/13 07:00:48;;;;;;;113.60;65.93;;;;;;;;;;5095216;28;20058;-46
2022/03/13 07:03:15;;;;;;;126.35;67.93;;;;;;;;;;5095003;28;20024;-46
2022/03/13 07:05:42;;;;;;;115.85;65.03;;;;;;;;;;5095396;28;20111;-45
2022/03/13 07:08:08;;;;;;;105.82;60.25;;;;;;;;;;5094935;28;20471;-46
2022/03/13 07:10:34;;;;;;;112.18;65.47;;;;;;;;;;5094978;28;20059;-46
2022/03/13 07:13:00;;;;;;;99.93;56.28;;;;;;;;;;5094922;28;20376;-46
2022/03/13 07:15:27;;;;;;;99.07;55.85;;;;;;;;;;5095016;28;20536;-44
2022/03/13 07:17:53;;;;;;;94.50;55.92;;;;;;;;;;5094750;28;20044;-44
2022/03/13 07:20:20;;;;;;;95.05;54.38;;;;;;;;;;5094788;28;20024;-45
2022/03/13 07:22:46;;;;;;;103.30;60.55;;;;;;;;;;5094894;28;20016;-44
2022/03/13 07:25:14;;;;;;;91.18;50.63;;;;;;;;;;5094881;28;20030;-44
2022/03/13 07:27:40;;;;;;;82.72;45.65;;;;;;;;;;5094908;28;20035;-45
2022/03/13 07:30:07;;;;;;;96.95;49.67;;;;;;;;;;5094557;28;20115;-47
2022/03/13 07:32:34;;;;;;;74.88;42.30;;;;;;;;;;5094536;28;20028;-46
2022/03/13 07:35:02;;;;;;;84.72;49.72;;;;;;;;;;5094523;28;20085;-45
2022/03/13 07:37:28;;;;;;;70.88;42.75;;;;;;;;;;5094451;28;20025;-46
2022/03/13 07:39:55;;;;;;;88.30;51.00;;;;;;;;;;5094693;28;20038;-46
2022/03/13 07:42:21;;;;;;;82.80;47.05;;;;;;;;;;5094690;28;20474;-45
2022/03/13 07:44:47;;;;;;;76.35;45.75;;;;;;;;;;5094645;28;20028;-44
2022/03/13 07:47:15;;;;;;;112.82;63.88;;;;;;;;;;5093792;28;20106;-46
2022/03/13 07:49:46;;;;;;;82.63;49.40;;;;;;;;;;5094152;28;20089;-45
2022/03/13 07:52:12;;;;;;;97.32;58.25;;;;;;;;;;5094081;28;20058;-46
2022/03/13 07:54:38;;;;;;;78.70;49.30;;;;;;;;;;5094300;28;20077;-46
2022/03/13 07:57:04;;;;;;;103.78;57.50;;;;;;;;;;5094228;28;20028;-46
2022/03/13 07:59:33;;;;;;;93.68;54.95;;;;;;;;;;5094295;28;20028;-46
2022/03/13 08:02:00;;;;;;;79.05;49.75;;;;;;;;;;5093968;28;20020;-46
2022/03/13 08:04:30;;;;;;;94.57;58.28;;;;;;;;;;5093863;28;20048;-46
2022/03/13 08:06:57;;;;;;;121.10;71.70;;;;;;;;;;5093738;28;20020;-47
2022/03/13 08:09:23;;;;;;;144.30;86.97;;;;;;;;;;5093972;28;20438;-46
2022/03/13 08:11:53;;;;;;;124.00;76.50;;;;;;;;;;5094050;28;20016;-47
2022/03/13 08:14:20;;;;;;;113.85;66.03;;;;;;;;;;5093744;28;20031;-47
2022/03/13 08:16:49;;;;;;;135.95;77.05;;;;;;;;;;5093717;28;20064;-46
2022/03/13 08:19:15;;;;;;;109.70;63.92;;;;;;;;;;5092094;28;20406;-47
2022/03/13 08:21:41;;;;;;;94.53;56.70;;;;;;;;;;5093694;28;20035;-46
2022/03/13 08:24:07;;;;;;;58.55;36.38;;;;;;;;;;5093684;28;20027;-47
2022/03/13 08:26:38;;;;;;;74.95;43.45;;;;;;;;;;5093854;28;20443;-47
2022/03/13 08:29:06;;;;;;;47.03;29.80;;;;;;;;;;5093482;28;20107;-47
2022/03/13 08:31:33;;;;;;;40.65;25.13;;;;;;;;;;5093767;28;20021;-48
2022/03/13 08:33:59;;;;;;;37.05;22.88;;;;;;;;;;5093469;28;20111;-45
2022/03/13 08:36:26;;;;;;;34.33;20.38;;;;;;;;;;5093293;28;20103;-46
2022/03/13 08:38:52;;;;;;;34.53;20.92;;;;;;;;;;5092664;28;20432;-46
2022/03/13 08:41:18;;;;;;;34.97;19.98;;;;;;;;;;5092813;28;20020;-46
2022/03/13 08:43:45;;;;;;;27.42;18.10;;;;;;;;;;5092766;28;20036;-45
2022/03/13 08:46:12;;;;;;;30.88;19.10;;;;;;;;;;5092700;28;20066;-40
2022/03/13 08:48:39;;;;;;;18.02;12.73;;;;;;;;;;5092523;28;20097;-42
2022/03/13 08:51:05;;;;;;;21.50;13.43;;;;;;;;;;5091214;28;20487;-48
2022/03/13 08:53:34;;;;;;;50.55;27.63;;;;;;;;;;5092873;28;20048;-46
2022/03/13 08:56:00;;;;;;;59.95;36.08;;;;;;;;;;5092704;28;20020;-48
2022/03/13 08:58:26;;;;;;;73.88;47.17;;;;;;;;;;5092682;28;20070;-45
2022/03/13 09:00:56;;;;;;;25.63;15.32;;;;;;;;;;5092800;28;20023;-44
2022/03/13 09:03:28;;;;;;;66.82;40.38;;;;;;;;;;5092694;28;20091;-42
2022/03/13 09:05:57;;;;;;;150.60;86.35;;;;;;;;;;5092646;28;20016;-46
2022/03/13 09:08:23;;;;;;;82.63;46.47;;;;;;;;;;5091282;28;20067;-45
2022/03/13 09:10:49;;;;;;;96.25;58.13;;;;;;;;;;5089785;28;20036;-45
2022/03/13 09:13:16;;;;;;;30.30;21.10;;;;;;;;;;5092463;28;20027;-44
2022/03/13 09:15:42;;;;;;;24.75;16.90;;;;;;;;;;5092685;28;20020;-43
2022/03/13 09:18:08;;;;;;;28.58;15.80;;;;;;;;;;5092386;28;20032;-47
2022/03/13 09:20:34;;;;;;;62.42;36.58;;;;;;;;;;5092458;28;20085;-44
2022/03/13 09:23:01;;;;;;;56.20;32.60;;;;;;;;;;5092588;28;20468;-43
2022/03/13 09:25:27;;;;;;;45.38;25.98;;;;;;;;;;5092516;28;20020;-46
2022/03/13 09:27:55;;;;;;;23.48;14.57;;;;;;;;;;5092828;28;20020;-44
2022/03/13 09:30:21;;;;;;;48.50;28.52;;;;;;;;;;5094117;28;20039;-46
2022/03/13 09:32:49;;;;;;;57.78;34.65;;;;;;;;;;5096413;28;20024;-47
2022/03/13 09:35:15;;;;;;;43.50;28.98;;;;;;;;;;5096277;28;20023;-48
2022/03/13 09:37:41;;;;;;;32.78;19.85;;;;;;;;;;5096278;28;20070;-48
2022/03/13 09:40:09;;;;;;;28.52;16.65;;;;;;;;;;5096386;28;20051;-51
2022/03/13 09:42:36;;;;;;;26.30;15.25;;;;;;;;;;5096043;28;20444;-53
2022/03/13 09:45:02;;;;;;;67.35;33.95;;;;;;;;;;5096315;28;20448;-56
2022/03/13 09:47:29;;;;;;;36.55;21.75;;;;;;;;;;5095807;28;20102;-51
2022/03/13 09:49:55;;;;;;;40.00;22.90;;;;;;;;;;5092664;28;20028;-53
2022/03/13 09:52:21;;;;;;;29.88;18.92;;;;;;;;;;5094748;28;20024;-48
2022/03/13 09:54:47;;;;;;;45.53;29.27;;;;;;;;;;5096197;28;20020;-52
2022/03/13 09:57:14;;;;;;;45.13;28.83;;;;;;;;;;5096165;28;20031;-52
2022/03/13 09:59:43;;;;;;;31.02;18.08;;;;;;;;;;5096021;28;20154;-41
2022/03/13 10:02:09;;;;;;;86.95;50.97;;;;;;;;;;5095854;28;20008;-50
2022/03/13 10:04:35;;;;;;;97.85;56.33;;;;;;;;;;5095660;28;20016;-52
2022/03/13 10:07:11;;;;;;;65.32;36.75;;;;;;;;;;5096007;28;20345;-52
2022/03/13 10:09:40;;;;;;;41.35;25.23;;;;;;;;;;5093939;28;20016;-48
2022/03/13 10:12:18;;;;;;;18.45;12.48;;;;;;;;;;5094496;28;20392;-50
2022/03/13 10:15:01;;;;;;;19.17;10.65;;;;;;;;;;5095718;28;20023;-52
2022/03/13 10:17:28;;;;;;;18.35;12.48;;;;;;;;;;5094779;28;20024;-52
2022/03/13 10:19:55;;;;;;;15.30;10.52;;;;;;;;;;5095562;28;20019;-52
2022/03/13 10:22:29;;;;;;;16.60;9.40;;;;;;;;;;5096163;28;20522;-51
2022/03/13 10:24:55;;;;;;;12.88;8.93;;;;;;;;;;5096268;28;20028;-48
2022/03/13 10:27:21;;;;;;;15.82;9.45;;;;;;;;;;5093948;28;20039;-46
2022/03/13 10:29:47;;;;;;;15.25;9.23;;;;;;;;;;5093971;28;20027;-51
2022/03/13 10:32:14;;;;;;;15.73;8.93;;;;;;;;;;5087514;28;20122;-48
2022/03/13 10:34:40;;;;;;;19.30;13.52;;;;;;;;;;5069056;28;20024;-50
2022/03/13 10:37:09;;;;;;;14.30;10.07;;;;;;;;;;5068443;28;20024;-54
2022/03/13 10:39:36;;;;;;;15.20;9.32;;;;;;;;;;5067810;28;20029;-49
2022/03/13 10:42:03;;;;;;;13.65;8.90;;;;;;;;;;5067833;28;20024;-49
2022/03/13 10:44:34;;;;;;;14.75;10.20;;;;;;;;;;5073033;28;20115;-41
2022/03/13 10:47:05;;;;;;;11.52;8.25;;;;;;;;;;5094740;28;20033;-44
2022/03/13 10:49:40;;;;;;;13.73;9.02;;;;;;;;;;5092400;28;20016;-44
2022/03/13 10:52:22;;;;;;;13.75;9.07;;;;;;;;;;5094767;28;20020;-45
2022/03/13 10:54:49;;;;;;;14.90;8.85;;;;;;;;;;5091888;28;20024;-45
2022/03/13 10:57:19;;;;;;;14.07;9.38;;;;;;;;;;5094595;28;20024;-45
2022/03/13 10:59:45;;;;;;;18.77;11.60;;;;;;;;;;5094775;28;20495;-46
2022/03/13 11:02:18;;;;;;;14.25;9.02;;;;;;;;;;5094822;28;20016;-45
2022/03/13 11:04:51;;;;;;;12.70;8.30;;;;;;;;;;5094345;28;20027;-49
2022/03/13 11:07:18;;;;;;;9.15;6.30;;;;;;;;;;5092396;28;20055;-46
2022/03/13 11:09:44;;;;;;;18.92;11.65;;;;;;;;;;5086141;28;20067;-40
2022/03/13 11:12:17;;;;;;;22.70;15.10;;;;;;;;;;5068815;28;20515;-42
2022/03/13 11:14:44;;;;;;;14.35;9.38;;;;;;;;;;5068893;28;20028;-39
2022/03/13 11:17:14;;;;;;;14.98;10.23;;;;;;;;;;5069780;28;20035;-42
2022/03/13 11:19:40;;;;;;;16.05;10.88;;;;;;;;;;5070426;28;20028;-48
2022/03/13 11:22:07;;;;;;;32.20;20.75;;;;;;;;;;5069908;28;20035;-48
2022/03/13 11:24:36;;;;;;;22.70;13.32;;;;;;;;;;5068656;28;20020;-44
2022/03/13 11:27:02;;;;;;;29.85;18.63;;;;;;;;;;5069769;28;20545;-47
2022/03/13 11:29:42;;;;;;;16.50;11.43;;;;;;;;;;5071864;28;20031;-42
2022/03/13 11:32:29;;;;;;;17.08;11.30;;;;;;;;;;5071786;28;20074;-47
2022/03/13 11:35:14;;;;;;;16.13;9.48;;;;;;;;;;5070697;28;20462;-43
2022/03/13 11:37:41;;;;;;;22.27;12.98;;;;;;;;;;5069852;28;20024;-47
2022/03/13 11:40:09;;;;;;;24.38;13.15;;;;;;;;;;5070149;28;20483;-50
2022/03/13 11:42:50;;;;;;;33.70;20.42;;;;;;;;;;5069355;28;20035;-45
2022/03/13 11:45:32;;;;;;;62.00;37.00;;;;;;;;;;5069691;28;20028;-44
2022/03/13 11:48:22;;;;;;;51.67;31.95;;;;;;;;;;5068638;28;20292;-51
2022/03/13 11:50:58;;;;;;;152.97;91.00;;;;;;;;;;5069524;28;20734;-52
2022/03/13 11:53:25;;;;;;;42.00;25.38;;;;;;;;;;5067335;28;20101;-44
2022/03/13 11:55:57;;;;;;;26.83;16.63;;;;;;;;;;5069874;28;20020;-47
2022/03/13 11:58:42;;;;;;;16.60;11.25;;;;;;;;;;5068444;28;20028;-42
2022/03/13 12:01:23;;;;;;;16.73;11.38;;;;;;;;;;5063706;28;20028;-47
2022/03/13 12:04:03;;;;;;;23.65;16.67;;;;;;;;;;5063040;28;20024;-43
2022/03/13 12:06:44;;;;;;;14.43;9.60;;;;;;;;;;5062565;28;20029;-41
2022/03/13 12:09:15;;;;;;;18.27;10.18;;;;;;;;;;5062284;28;20082;-41
2022/03/13 12:11:47;;;;;;;13.10;9.15;;;;;;;;;;5063760;28;20048;-43
2022/03/13 12:14:18;;;;;;;14.80;9.93;;;;;;;;;;5062194;28;20025;-49
2022/03/13 12:16:46;;;;;;;40.47;25.52;;;;;;;;;;5064471;28;20382;-41
2022/03/13 12:19:12;;;;;;;15.20;9.85;;;;;;;;;;5062806;28;20028;-46
2022/03/13 12:21:43;;;;;;;13.77;8.80;;;;;;;;;;5062166;28;20021;-46
2022/03/13 12:24:14;;;;;;;24.87;10.10;;;;;;;;;;5062368;28;20024;-44
2022/03/13 12:26:41;;;;;;;12.88;9.45;;;;;;;;;;5062070;28;20031;-42
2022/03/13 12:29:08;;;;;;;30.83;19.48;;;;;;;;;;5062292;28;20024;-51
2022/03/13 12:31:41;;;;;;;16.35;9.13;;;;;;;;;;5062062;28;20033;-46
2022/03/13 12:34:07;;;;;;;17.90;9.13;;;;;;;;;;5063253;28;20711;-46
2022/03/13 12:36:38;;;;;;;15.30;10.35;;;;;;;;;;5061987;28;20470;-41
2022/03/13 12:39:14;;;;;;;14.40;9.52;;;;;;;;;;5064089;28;20064;-45
2022/03/13 12:41:42;;;;;;;19.00;9.25;;;;;;;;;;5062222;28;20038;-40
2022/03/13 12:44:09;;;;;;;11.05;8.50;;;;;;;;;;5063394;28;20385;-40
2022/03/13 12:46:36;;;;;;;15.30;9.20;;;;;;;;;;5061692;28;20078;-42
2022/03/13 12:49:04;;;;;;;14.25;8.63;;;;;;;;;;5061716;28;20061;-43
2022/03/13 12:51:34;;;;;;;15.23;9.48;;;;;;;;;;5061956;28;21197;-49
2022/03/13 12:54:08;;;;;;;15.43;9.85;;;;;;;;;;5061975;28;20073;-45
2022/03/13 12:56:36;;;;;;;14.48;9.30;;;;;;;;;;5063057;28;20172;-42
2022/03/13 12:59:02;;;;;;;12.13;8.55;;;;;;;;;;5062068;28;20379;-39
2022/03/13 13:01:28;;;;;;;15.73;9.13;;;;;;;;;;5061266;28;20032;-46
2022/03/13 13:03:57;;;;;;;15.50;10.40;;;;;;;;;;5063454;28;20032;-43
2022/03/13 13:06:29;;;;;;;18.85;9.85;;;;;;;;;;5066386;28;20018;-39
2022/03/13 13:08:55;;;;;;;15.43;9.30;;;;;;;;;;5065900;28;20207;-40
2022/03/13 13:11:31;;;;;;;13.60;9.88;;;;;;;;;;5065456;28;20060;-39
2022/03/13 13:14:01;;;;;;;15.38;9.35;;;;;;;;;;5065972;28;20086;-41
2022/03/13 13:16:35;;;;;;;14.35;9.50;;;;;;;;;;5065596;28;20028;-40
2022/03/13 13:19:03;;;;;;;16.77;10.80;;;;;;;;;;5065571;28;20383;-41
2022/03/13 13:21:33;;;;;;;14.27;9.00;;;;;;;;;;5065445;28;20032;-44
2022/03/13 13:23:59;;;;;;;15.77;10.20;;;;;;;;;;5065548;28;20476;-40
2022/03/13 13:26:51;;;;;;;18.40;10.25;;;;;;;;;;5065306;28;20077;-43
2022/03/13 13:29:30;;;;;;;22.05;13.82;;;;;;;;;;5065174;28;20160;-45
2022/03/13 13:32:16;;;;;;;17.85;10.30;;;;;;;;;;5066366;28;20071;-43
2022/03/13 13:34:44;;;;;;;19.50;10.25;;;;;;;;;;5065147;28;20032;-40
2022/03/13 13:37:10;;;;;;;17.42;8.73;;;;;;;;;;5065416;28;20020;-44
2022/03/13 13:39:36;;;;;;;12.45;8.90;;;;;;;;;;5065407;28;20016;-50
2022/03/13 13:42:03;;;;;;;13.73;9.57;;;;;;;;;;5066117;28;20056;-40
2022/03/13 13:44:32;;;;;;;17.98;10.25;;;;;;;;;;5065112;28;20042;-46
2022/03/13 13:47:07;;;;;;;29.65;13.02;;;;;;;;;;5064736;28;20032;-40
2022/03/13 13:49:34;;;;;;;16.75;10.25;;;;;;;;;;5065407;28;20468;-40
2022/03/13 13:52:10;;;;;;;19.80;11.70;;;;;;;;;;5064908;28;20040;-44
2022/03/13 13:54:37;;;;;;;19.67;9.95;;;;;;;;;;5064968;28;20012;-46
2022/03/13 13:57:03;;;;;;;14.18;8.93;;;;;;;;;;5064845;28;20020;-44
2022/03/13 13:59:40;;;;;;;15.52;10.35;;;;;;;;;;5066927;28;20502;-44
2022/03/13 14:02:08;;;;;;;16.85;9.63;;;;;;;;;;5065964;28;20566;-50
2022/03/13 14:04:35;;;;;;;15.05;8.55;;;;;;;;;;5065563;28;20032;-41
2022/03/13 14:07:04;;;;;;;14.63;9.07;;;;;;;;;;5065809;28;20025;-43
2022/03/13 14:09:30;;;;;;;17.95;11.35;;;;;;;;;;5065875;28;20039;-45
2022/03/13 14:11:57;;;;;;;14.88;9.68;;;;;;;;;;5064453;28;20074;-39
2022/03/13 14:14:23;;;;;;;14.93;9.55;;;;;;;;;;5064790;28;20028;-40
2022/03/13 14:16:50;;;;;;;17.05;10.35;;;;;;;;;;5064008;28;20605;-46
2022/03/13 14:19:16;;;;;;;44.35;25.55;;;;;;;;;;5064365;28;20020;-45